createdAt,value
2023-01-19T00:02:09.301Z,97923.21
2023-01-19T00:05:04.088Z,97922.30
2023-01-19T00:07:56.911Z,97905.48
2023-01-19T00:10:52.391Z,97907.13
2023-01-19T00:13:50.535Z,97918.96
2023-01-19T00:16:43.502Z,97924.98
2023-01-19T00:19:36.534Z,97910.92
2023-01-19T00:22:29.270Z,97913.86
2023-01-19T00:25:22.132Z,97919.20
2023-01-19T00:28:17.043Z,97919.55
2023-01-19T00:31:10.910Z,97924.91
2023-01-19T00:34:03.989Z,97922.33
2023-01-19T00:36:57.417Z,97925.78
2023-01-19T00:39:50.279Z,97935.98
2023-01-19T00:42:45.593Z,97947.95
2023-01-19T00:45:38.516Z,97950.41
2023-01-19T00:48:24.007Z,97954.63
2023-01-19T00:51:16.746Z,97952.45
2023-01-19T00:54:10.463Z,97954.23
2023-01-19T00:57:03.589Z,97949.59
2023-01-19T00:59:50.475Z,97941.81
2023-01-19T01:02:45.073Z,97932.83
2023-01-19T01:05:41.274Z,97929.88
2023-01-19T01:08:33.458Z,97929.52
2023-01-19T01:11:26.176Z,97912.77
2023-01-19T01:14:19.470Z,97912.60
2023-01-19T01:17:04.858Z,97908.45
2023-01-19T01:19:58.117Z,97904.99
2023-01-19T01:22:53.886Z,97907.48
2023-01-19T01:25:46.734Z,97907.51
2023-01-19T01:28:39.488Z,97907.55
2023-01-19T01:31:32.283Z,97901.34
2023-01-19T01:34:25.080Z,97901.04
2023-01-19T01:37:18.954Z,97896.92
2023-01-19T01:40:14.976Z,97908.50
2023-01-19T01:43:08.003Z,97907.77
2023-01-19T01:46:00.849Z,97912.23
2023-01-19T01:49:01.941Z,97912.92
2023-01-19T01:51:56.245Z,97916.89
2023-01-19T01:54:42.240Z,97920.34
2023-01-19T01:57:15.632Z,97914.80
2023-01-19T02:00:10.836Z,97903.76
2023-01-19T02:03:03.988Z,97896.67
2023-01-19T02:06:01.645Z,97904.11
2023-01-19T02:09:16.873Z,97912.06
2023-01-19T02:12:27.275Z,97909.30
2023-01-19T02:15:21.181Z,97907.12
2023-01-19T02:18:09.178Z,97899.53
2023-01-19T02:21:12.292Z,97899.41
2023-01-19T02:24:06.148Z,97900.65
2023-01-19T02:27:09.017Z,97901.54
2023-01-19T02:30:03.797Z,97899.98
2023-01-19T02:32:57.806Z,97896.20
2023-01-19T02:35:53.217Z,97895.17
2023-01-19T02:38:49.038Z,97887.40
2023-01-19T02:41:47.884Z,97879.79
2023-01-19T02:44:42.874Z,97873.36
2023-01-19T02:47:43.246Z,97867.28
2023-01-19T02:50:53.141Z,97873.12
2023-01-19T02:54:14.856Z,97872.77
2023-01-19T02:57:24.602Z,97877.74
2023-01-19T03:00:36.756Z,97874.27
2023-01-19T03:03:39.978Z,97870.64
2023-01-19T03:06:44.871Z,97864.41
2023-01-19T03:09:44.236Z,97859.40
2023-01-19T03:12:45.334Z,97861.31
2023-01-19T03:16:00.919Z,97862.70
2023-01-19T03:18:56.743Z,97846.61
2023-01-19T03:21:52.057Z,97830.35
2023-01-19T03:24:47.302Z,97825.00
2023-01-19T03:27:43.657Z,97828.45
2023-01-19T03:30:40.280Z,97839.17
2023-01-19T03:33:33.327Z,97842.81
2023-01-19T03:36:33.732Z,97842.46
2023-01-19T03:39:29.470Z,97848.85
2023-01-19T03:42:22.903Z,97850.76
2023-01-19T03:45:16.638Z,97853.30
2023-01-19T03:48:10.520Z,97851.04
2023-01-19T03:51:07.348Z,97848.97
2023-01-19T03:54:01.463Z,97856.92
2023-01-19T03:56:54.538Z,97866.60
2023-01-19T03:59:45.973Z,97882.86
2023-01-19T04:02:38.943Z,97899.16
2023-01-19T04:05:31.850Z,97909.54
2023-01-19T04:08:24.609Z,97914.73
2023-01-19T04:11:17.411Z,97920.95
2023-01-19T04:14:10.161Z,97924.08
2023-01-19T04:17:03.275Z,97921.30
2023-01-19T04:19:56.463Z,97928.89
2023-01-19T04:22:49.826Z,97932.46
2023-01-19T04:25:33.308Z,97936.42
2023-01-19T04:28:26.171Z,97931.75
2023-01-19T04:31:13.068Z,97919.48
2023-01-19T04:34:06.082Z,97907.04
2023-01-19T04:36:52.486Z,97894.90
2023-01-19T04:39:45.487Z,97899.02
2023-01-19T04:42:38.476Z,97902.77
2023-01-19T04:45:31.560Z,97899.47
2023-01-19T04:48:24.601Z,97910.70
2023-01-19T04:51:16.321Z,97910.35
2023-01-19T04:53:57.986Z,97907.77
2023-01-19T04:56:51.075Z,97917.10
2023-01-19T04:59:44.154Z,97924.35
2023-01-19T05:02:28.910Z,97925.84
2023-01-19T05:05:22.380Z,97943.77
2023-01-19T05:08:15.381Z,97943.41
2023-01-19T05:11:08.795Z,97953.95
2023-01-19T05:14:01.797Z,97969.97
2023-01-19T05:16:54.646Z,97954.05
2023-01-19T05:19:47.926Z,97955.58
2023-01-19T05:22:35.347Z,97955.16
2023-01-19T05:25:21.283Z,97963.40
2023-01-19T05:28:16.279Z,97958.54
2023-01-19T05:31:09.978Z,97945.36
2023-01-19T05:34:04.238Z,97947.48
2023-01-19T05:36:37.313Z,97932.68
2023-01-19T05:39:30.439Z,97925.80
2023-01-19T05:42:24.197Z,97894.05
2023-01-19T05:45:17.400Z,97880.90
2023-01-19T05:48:11.143Z,97851.55
2023-01-19T05:51:06.040Z,97874.69
2023-01-19T05:53:58.933Z,97905.63
2023-01-19T05:56:51.924Z,97931.20
2023-01-19T05:59:38.007Z,97943.30
2023-01-19T06:02:31.470Z,97941.65
2023-01-19T06:05:17.390Z,97943.27
2023-01-19T06:08:10.485Z,97941.95
2023-01-19T06:11:03.529Z,97954.98
2023-01-19T06:13:57.076Z,97970.23
2023-01-19T06:16:50.177Z,97974.79
2023-01-19T06:19:43.258Z,97967.23
2023-01-19T06:22:36.544Z,97953.92
2023-01-19T06:25:28.019Z,97947.85
2023-01-19T06:28:13.558Z,97950.76
2023-01-19T06:31:07.090Z,97956.06
2023-01-19T06:34:00.015Z,97946.55
2023-01-19T06:36:53.153Z,97942.40
2023-01-19T06:39:46.124Z,97950.69
2023-01-19T06:42:39.098Z,97957.77
2023-01-19T06:45:32.358Z,97949.48
2023-01-19T06:48:24.194Z,97946.02
2023-01-19T06:51:17.081Z,97944.29
2023-01-19T06:54:05.335Z,97949.25
2023-01-19T06:56:58.421Z,97946.83
2023-01-19T06:59:52.975Z,97944.91
2023-01-19T07:02:47.358Z,97952.85
2023-01-19T07:05:40.764Z,97947.83
2023-01-19T07:08:34.250Z,97937.29
2023-01-19T07:11:32.333Z,97952.84
2023-01-19T07:14:23.926Z,97972.39
2023-01-19T07:17:17.664Z,97970.14
2023-01-19T07:20:14.558Z,97972.92
2023-01-19T07:23:07.973Z,97983.83
2023-01-19T07:26:02.321Z,97997.70
2023-01-19T07:28:55.658Z,98008.27
2023-01-19T07:31:49.240Z,98011.09
2023-01-19T07:34:42.168Z,98011.30
2023-01-19T07:37:27.684Z,98013.73
2023-01-19T07:40:19.918Z,98022.05
2023-01-19T07:43:12.821Z,98023.47
2023-01-19T07:46:07.946Z,98015.88
2023-01-19T07:49:00.965Z,98012.94
2023-01-19T07:51:56.501Z,98015.17
2023-01-19T07:54:51.030Z,98010.68
2023-01-19T07:57:43.926Z,97999.15
2023-01-19T08:00:29.758Z,97982.08
2023-01-19T08:03:07.042Z,97970.88
2023-01-19T08:05:40.578Z,97972.45
2023-01-19T08:08:13.523Z,97975.04
2023-01-19T08:10:46.339Z,97971.24
2023-01-19T08:13:32.366Z,97968.48
2023-01-19T08:16:16.093Z,97975.61
2023-01-19T08:18:49.181Z,97984.31
2023-01-19T08:21:41.984Z,97979.33
2023-01-19T08:24:35.392Z,97966.52
2023-01-19T08:27:20.664Z,97959.11
2023-01-19T08:30:14.871Z,97947.53
2023-01-19T08:33:08.352Z,97938.89
2023-01-19T08:35:54.189Z,97932.51
2023-01-19T08:38:47.522Z,97926.63
2023-01-19T08:41:40.418Z,97930.29
2023-01-19T08:44:33.590Z,97930.81
2023-01-19T08:47:25.585Z,97941.21
2023-01-19T08:50:19.545Z,97948.49
2023-01-19T08:53:13.337Z,97949.02
2023-01-19T08:56:12.385Z,97945.73
2023-01-19T08:59:09.858Z,97942.09
2023-01-19T09:01:56.871Z,97946.57
2023-01-19T09:04:30.124Z,97954.36
2023-01-19T09:07:23.042Z,97959.20
2023-01-19T09:10:16.453Z,97960.59
2023-01-19T09:13:13.089Z,97966.09
2023-01-19T09:16:08.154Z,97958.96
2023-01-19T09:19:01.178Z,97955.70
2023-01-19T09:21:34.656Z,97942.54
2023-01-19T09:24:28.817Z,97924.69
2023-01-19T09:27:21.899Z,97920.67
2023-01-19T09:29:57.429Z,97920.48
2023-01-19T09:32:50.590Z,97915.09
2023-01-19T09:35:45.545Z,97910.06
2023-01-19T09:38:38.567Z,97908.85
2023-01-19T09:41:26.171Z,97918.20
2023-01-19T09:44:21.604Z,97918.20
2023-01-19T09:47:24.895Z,97917.33
2023-01-19T09:50:22.833Z,97909.02
2023-01-19T09:53:22.285Z,97904.54
2023-01-19T09:56:17.083Z,97904.20
2023-01-19T09:59:22.018Z,97897.10
2023-01-19T10:02:23.609Z,97892.06
2023-01-19T10:05:28.289Z,97896.06
2023-01-19T10:08:32.050Z,97894.02
2023-01-19T10:11:51.832Z,97887.82
2023-01-19T10:14:53.762Z,97887.85
2023-01-19T10:17:49.315Z,97891.14
2023-01-19T10:20:46.244Z,97877.80
2023-01-19T10:23:46.926Z,97872.29
2023-01-19T10:26:44.801Z,97865.88
2023-01-19T10:29:42.692Z,97862.60
2023-01-19T10:32:37.893Z,97857.23
2023-01-19T10:35:32.714Z,97857.05
2023-01-19T10:38:27.890Z,97847.70
2023-01-19T10:41:27.581Z,97850.80
2023-01-19T10:44:27.349Z,97853.38
2023-01-19T10:47:18.242Z,97855.77
2023-01-19T10:50:26.392Z,97851.95
2023-01-19T10:53:22.425Z,97847.44
2023-01-19T10:56:23.193Z,97850.54
2023-01-19T10:59:31.961Z,97849.65
2023-01-19T11:02:27.860Z,97842.40
2023-01-19T11:05:29.398Z,97841.52
2023-01-19T11:08:25.445Z,97841.14
2023-01-19T11:11:18.965Z,97838.88
2023-01-19T11:14:15.741Z,97835.23
2023-01-19T11:17:18.962Z,97836.60
2023-01-19T11:20:04.157Z,97839.52
2023-01-19T11:23:18.084Z,97839.17
2023-01-19T11:26:16.491Z,97842.77
2023-01-19T11:29:17.336Z,97832.38
2023-01-19T11:32:25.211Z,97833.75
2023-01-19T11:35:38.504Z,97834.08
2023-01-19T11:38:32.958Z,97828.35
2023-01-19T11:41:22.680Z,97826.61
2023-01-19T11:43:58.063Z,97827.64
2023-01-19T11:46:39.772Z,97830.76
2023-01-19T11:49:28.856Z,97828.84
2023-01-19T11:52:27.502Z,97820.90
2023-01-19T11:55:22.711Z,97812.61
2023-01-19T11:58:08.901Z,97808.64
2023-01-19T12:01:08.526Z,97803.11
2023-01-19T12:04:06.571Z,97807.61
2023-01-19T12:06:57.005Z,97812.44
2023-01-19T12:09:46.684Z,97816.75
2023-01-19T12:12:33.693Z,97813.64
2023-01-19T12:15:33.421Z,97807.07
2023-01-19T12:18:25.473Z,97795.27
2023-01-19T12:21:11.379Z,97787.67
2023-01-19T12:24:01.448Z,97782.11
2023-01-19T12:26:57.641Z,97777.47
2023-01-19T12:29:36.720Z,97776.77
2023-01-19T12:32:34.511Z,97774.70
2023-01-19T12:35:42.922Z,97779.00
2023-01-19T12:38:41.910Z,97779.15
2023-01-19T12:41:35.534Z,97780.21
2023-01-19T12:44:34.333Z,97781.96
2023-01-19T12:47:27.313Z,97776.56
2023-01-19T12:50:09.273Z,97780.59
2023-01-19T12:53:08.371Z,97785.94
2023-01-19T12:56:06.227Z,97787.14
2023-01-19T12:58:55.114Z,97785.38
2023-01-19T13:01:28.061Z,97785.55
2023-01-19T13:04:35.177Z,97788.86
2023-01-19T13:07:18.040Z,97794.23
2023-01-19T13:10:01.842Z,97796.29
2023-01-19T13:12:35.587Z,97797.85
2023-01-19T13:15:35.520Z,97804.41
2023-01-19T13:18:14.129Z,97814.96
2023-01-19T13:20:49.368Z,97812.02
2023-01-19T13:23:28.397Z,97805.07
2023-01-19T13:26:07.771Z,97810.75
2023-01-19T13:28:44.890Z,97815.77
2023-01-19T13:31:21.326Z,97826.11
2023-01-19T13:33:58.389Z,97831.81
2023-01-19T13:36:47.609Z,97844.23
2023-01-19T13:39:36.960Z,97847.13
2023-01-19T13:42:35.401Z,97854.23
2023-01-19T13:45:31.198Z,97857.75
2023-01-19T13:48:26.132Z,97861.94
2023-01-19T13:51:04.109Z,97869.73
2023-01-19T13:53:58.552Z,97875.81
2023-01-19T13:56:42.782Z,97878.27
2023-01-19T13:59:28.011Z,97875.20
2023-01-19T14:02:16.430Z,97877.66
2023-01-19T14:04:52.167Z,97876.96
2023-01-19T14:07:29.025Z,97878.69
2023-01-19T14:10:08.295Z,97882.49
2023-01-19T14:13:04.133Z,97879.52
2023-01-19T14:15:50.716Z,97884.05
2023-01-19T14:18:31.363Z,97886.83
2023-01-19T14:21:18.707Z,97886.30
2023-01-19T14:24:17.847Z,97888.02
2023-01-19T14:27:08.819Z,97884.36
2023-01-19T14:29:45.703Z,97883.30
2023-01-19T14:32:48.823Z,97878.44
2023-01-19T14:35:41.673Z,97875.63
2023-01-19T14:38:23.709Z,97871.98
2023-01-19T14:41:28.400Z,97879.39
2023-01-19T14:44:26.380Z,97875.36
2023-01-19T14:47:34.646Z,97881.35
2023-01-19T14:50:29.154Z,97883.73
2023-01-19T14:53:21.317Z,97889.42
2023-01-19T14:56:08.657Z,97895.80
2023-01-19T14:58:56.363Z,97892.64
2023-01-19T15:01:40.113Z,97889.71
2023-01-19T15:04:23.255Z,97889.87
2023-01-19T15:06:58.004Z,97893.30
2023-01-19T15:09:34.075Z,97888.29
2023-01-19T15:12:19.068Z,97886.52
2023-01-19T15:15:02.601Z,97887.74
2023-01-19T15:17:48.068Z,97886.65
2023-01-19T15:20:32.592Z,97888.53
2023-01-19T15:23:25.347Z,97882.66
2023-01-19T15:26:11.538Z,97878.85
2023-01-19T15:28:50.164Z,97887.10
2023-01-19T15:31:42.976Z,97888.28
2023-01-19T15:34:36.648Z,97901.55
2023-01-19T15:37:29.397Z,97909.30
2023-01-19T15:40:15.208Z,97915.52
2023-01-19T15:43:08.277Z,97919.52
2023-01-19T15:46:03.890Z,97925.60
2023-01-19T15:48:48.472Z,97928.01
2023-01-19T15:51:39.912Z,97927.84
2023-01-19T15:54:17.793Z,97925.41
2023-01-19T15:57:11.775Z,97922.47
2023-01-19T16:00:05.231Z,97915.77
2023-01-19T16:02:42.503Z,97918.14
2023-01-19T16:05:43.025Z,97919.16
2023-01-19T16:08:16.276Z,97919.67
2023-01-19T16:11:12.487Z,97924.14
2023-01-19T16:14:04.686Z,97928.29
2023-01-19T16:17:00.879Z,97932.42
2023-01-19T16:19:53.711Z,97944.15
2023-01-19T16:22:45.421Z,97945.30
2023-01-19T16:25:38.180Z,97944.41
2023-01-19T16:28:31.551Z,97930.09
2023-01-19T16:31:24.543Z,97933.55
2023-01-19T16:34:18.315Z,97942.52
2023-01-19T16:37:21.126Z,97945.95
2023-01-19T16:40:15.353Z,97949.23
2023-01-19T16:43:01.228Z,97952.67
2023-01-19T16:46:00.307Z,97964.41
2023-01-19T16:48:53.399Z,97971.65
2023-01-19T16:51:46.876Z,97964.40
2023-01-19T16:54:43.074Z,97962.77
2023-01-19T16:57:36.187Z,97966.42
2023-01-19T17:00:30.345Z,97964.73
2023-01-19T17:03:23.673Z,97961.58
2023-01-19T17:06:20.430Z,97966.73
2023-01-19T17:09:13.507Z,97974.82
2023-01-19T17:12:09.384Z,97978.24
2023-01-19T17:14:54.732Z,97982.74
2023-01-19T17:17:41.219Z,97990.87
2023-01-19T17:20:35.574Z,97992.60
2023-01-19T17:23:30.293Z,97987.40
2023-01-19T17:26:03.373Z,97990.69
2023-01-19T17:29:02.098Z,97991.53
2023-01-19T17:31:46.025Z,97994.30
2023-01-19T17:34:39.229Z,97999.31
2023-01-19T17:37:25.890Z,97991.02
2023-01-19T17:40:14.006Z,97987.91
2023-01-19T17:42:57.043Z,97993.45
2023-01-19T17:45:47.402Z,97999.19
2023-01-19T17:48:42.578Z,98000.80
2023-01-19T17:51:28.658Z,98001.89
2023-01-19T17:54:15.500Z,98009.35
2023-01-19T17:57:01.227Z,98014.77
2023-01-19T17:59:46.996Z,98015.14
2023-01-19T18:02:40.352Z,98020.73
2023-01-19T18:05:26.163Z,98024.59
2023-01-19T18:08:19.392Z,98024.09
2023-01-19T18:11:12.523Z,98030.98
2023-01-19T18:14:06.769Z,98025.64
2023-01-19T18:16:50.607Z,98026.19
2023-01-19T18:19:44.657Z,98028.97
2023-01-19T18:22:36.444Z,98025.21
2023-01-19T18:25:12.427Z,98029.65
2023-01-19T18:27:59.279Z,98034.98
2023-01-19T18:30:45.391Z,98031.88
2023-01-19T18:33:28.976Z,98023.40
2023-01-19T18:36:21.854Z,98025.12
2023-01-19T18:39:15.235Z,98030.09
2023-01-19T18:42:08.222Z,98027.86
2023-01-19T18:45:01.314Z,98032.54
2023-01-19T18:47:53.035Z,98037.17
2023-01-19T18:50:45.783Z,98041.30
2023-01-19T18:53:38.901Z,98050.61
2023-01-19T18:56:32.972Z,98057.48
2023-01-19T18:59:25.904Z,98061.08
2023-01-19T19:02:18.850Z,98071.24
2023-01-19T19:05:04.606Z,98082.61
2023-01-19T19:07:57.410Z,98094.66
2023-01-19T19:10:37.895Z,98098.24
2023-01-19T19:13:31.000Z,98102.02
2023-01-19T19:16:24.071Z,98108.41
2023-01-19T19:19:02.852Z,98110.98
2023-01-19T19:21:49.064Z,98108.73
2023-01-19T19:24:21.841Z,98110.29
2023-01-19T19:27:17.322Z,98119.09
2023-01-19T19:30:12.645Z,98123.56
2023-01-19T19:33:06.104Z,98130.83
2023-01-19T19:35:59.192Z,98133.75
2023-01-19T19:38:49.268Z,98139.61
2023-01-19T19:41:57.554Z,98148.42
2023-01-19T19:44:40.967Z,98155.33
2023-01-19T19:47:34.005Z,98159.27
2023-01-19T19:50:26.805Z,98171.70
2023-01-19T19:53:13.419Z,98181.88
2023-01-19T19:56:08.445Z,98176.70
2023-01-19T19:59:02.003Z,98170.13
2023-01-19T20:01:49.883Z,98172.87
2023-01-19T20:04:43.136Z,98180.28
2023-01-19T20:07:36.231Z,98193.77
2023-01-19T20:10:30.166Z,98196.55
2023-01-19T20:13:22.894Z,98186.36
2023-01-19T20:16:17.401Z,98177.88
2023-01-19T20:19:57.739Z,98184.91
2023-01-19T20:22:24.181Z,98185.55
2023-01-19T20:25:09.413Z,98186.21
2023-01-19T20:28:02.180Z,98191.39
2023-01-19T20:30:47.883Z,98192.23
2023-01-19T20:33:41.973Z,98189.61
2023-01-19T20:36:37.857Z,98186.48
2023-01-19T20:39:33.395Z,98184.68
2023-01-19T20:42:26.271Z,98193.30
2023-01-19T20:45:20.848Z,98195.18
2023-01-19T20:48:04.704Z,98200.72
2023-01-19T20:51:02.669Z,98206.77
2023-01-19T20:53:48.054Z,98212.30
2023-01-19T20:56:41.280Z,98219.39
2023-01-19T20:59:36.962Z,98228.91
2023-01-19T21:02:16.865Z,98230.42
2023-01-19T21:04:54.849Z,98230.04
2023-01-19T21:07:29.947Z,98230.90
2023-01-19T21:10:15.962Z,98229.02
2023-01-19T21:13:08.707Z,98230.26
2023-01-19T21:16:01.458Z,98226.29
2023-01-19T21:18:54.696Z,98229.59
2023-01-19T21:21:48.013Z,98230.32
2023-01-19T21:24:42.169Z,98238.80
2023-01-19T21:27:36.743Z,98236.72
2023-01-19T21:30:29.672Z,98247.23
2023-01-19T21:33:23.169Z,98261.40
2023-01-19T21:36:15.933Z,98273.48
2023-01-19T21:39:09.252Z,98280.38
2023-01-19T21:42:02.711Z,98287.61
2023-01-19T21:44:49.884Z,98296.56
2023-01-19T21:47:42.699Z,98302.09
2023-01-19T21:50:28.498Z,98307.44
2023-01-19T21:53:21.244Z,98305.89
2023-01-19T21:56:16.880Z,98307.30
2023-01-19T21:59:03.629Z,98300.77
2023-01-19T22:01:57.513Z,98295.09
2023-01-19T22:04:50.491Z,98294.40
2023-01-19T22:07:43.429Z,98295.10
2023-01-19T22:10:38.559Z,98308.57
2023-01-19T22:13:31.786Z,98323.64
2023-01-19T22:16:25.513Z,98337.49
2023-01-19T22:19:14.552Z,98341.83
2023-01-19T22:22:07.332Z,98336.48
2023-01-19T22:24:58.519Z,98346.50
2023-01-19T22:27:52.395Z,98352.55
2023-01-19T22:30:45.617Z,98355.50
2023-01-19T22:33:38.730Z,98355.00
2023-01-19T22:36:34.092Z,98358.98
2023-01-19T22:39:28.398Z,98368.14
2023-01-19T22:42:19.938Z,98371.78
2023-01-19T22:45:15.390Z,98384.56
2023-01-19T22:47:59.410Z,98395.46
2023-01-19T22:50:58.638Z,98401.21
2023-01-19T22:53:51.680Z,98419.55
2023-01-19T22:56:45.866Z,98436.81
2023-01-19T22:59:37.677Z,98443.73
2023-01-19T23:02:24.517Z,98447.52
2023-01-19T23:05:17.587Z,98449.40
2023-01-19T23:08:12.835Z,98451.09
2023-01-19T23:11:11.087Z,98450.15
2023-01-19T23:14:04.521Z,98435.41
2023-01-19T23:16:57.294Z,98427.76
2023-01-19T23:19:50.408Z,98422.64
2023-01-19T23:22:43.155Z,98434.67
2023-01-19T23:25:37.208Z,98447.26
2023-01-19T23:28:34.227Z,98449.14
2023-01-19T23:31:29.704Z,98446.02
2023-01-19T23:34:22.545Z,98454.09
2023-01-19T23:37:15.389Z,98449.08
2023-01-19T23:40:10.195Z,98452.38
2023-01-19T23:43:03.154Z,98457.77
2023-01-19T23:45:55.991Z,98450.55
2023-01-19T23:48:49.323Z,98456.75
2023-01-19T23:51:43.149Z,98458.84
2023-01-19T23:54:36.455Z,98456.27
2023-01-19T23:57:31.436Z,98455.77
